createdAt,value
2017-08-30T00:00:42.761Z,0
2017-08-30T00:01:42.747Z,0
2017-08-30T00:02:43.059Z,0
2017-08-30T00:03:42.733Z,0
2017-08-30T00:04:42.404Z,0
2017-08-30T00:05:42.596Z,0
2017-08-30T00:06:42.383Z,0
2017-08-30T00:07:42.707Z,0
2017-08-30T00:08:42.380Z,0
2017-08-30T00:09:43.014Z,0
2017-08-30T00:10:42.679Z,0
2017-08-30T00:11:42.352Z,0
2017-08-30T00:12:42.986Z,0
2017-08-30T00:13:43.001Z,0
2017-08-30T00:14:42.644Z,0
2017-08-30T00:15:42.002Z,0
2017-08-30T00:16:42.311Z,0
2017-08-30T00:17:41.983Z,0
2017-08-30T00:18:42.622Z,0
2017-08-30T00:19:42.612Z,0
2017-08-30T00:20:41.961Z,0
2017-08-30T00:21:42.921Z,0
2017-08-30T00:22:42.299Z,0
2017-08-30T00:23:42.261Z,0
2017-08-30T00:24:42.900Z,0
2017-08-30T00:25:42.586Z,0
2017-08-30T00:26:42.244Z,0
2017-08-30T00:27:42.877Z,0
2017-08-30T00:28:42.229Z,0
2017-08-30T00:29:42.217Z,0
2017-08-30T00:30:42.212Z,0
2017-08-30T00:31:42.526Z,0
2017-08-30T00:32:42.517Z,0
2017-08-30T00:33:41.868Z,0
2017-08-30T00:34:42.820Z,0
2017-08-30T00:35:42.846Z,0
2017-08-30T00:36:42.193Z,0
2017-08-30T00:37:42.480Z,0
2017-08-30T00:38:41.832Z,0
2017-08-30T00:39:42.145Z,0
2017-08-30T00:40:42.459Z,0
2017-08-30T00:41:42.448Z,0
2017-08-30T00:42:42.124Z,0
2017-08-30T00:43:42.436Z,0
2017-08-30T00:44:42.431Z,0
2017-08-30T00:45:42.149Z,0
2017-08-30T00:46:42.422Z,0
2017-08-30T00:47:42.086Z,0
2017-08-30T00:48:42.079Z,0
2017-08-30T00:49:42.071Z,0
2017-08-30T00:50:42.065Z,0
2017-08-30T00:51:42.059Z,0
2017-08-30T00:52:42.705Z,0
2017-08-30T00:53:42.692Z,0
2017-08-30T00:54:42.041Z,0
2017-08-30T00:55:42.029Z,0
2017-08-30T00:56:42.026Z,0
2017-08-30T00:57:42.339Z,0
2017-08-30T00:58:42.368Z,0
2017-08-30T00:59:42.700Z,0
2017-08-30T01:00:42.352Z,0
2017-08-30T01:01:42.358Z,0
2017-08-30T01:02:42.330Z,0
2017-08-30T01:03:41.986Z,0
2017-08-30T01:04:42.604Z,0
2017-08-30T01:05:42.282Z,0
2017-08-30T01:06:41.627Z,0
2017-08-30T01:07:41.974Z,0
2017-08-30T01:08:42.255Z,0
2017-08-30T01:09:42.594Z,0
2017-08-30T01:10:42.239Z,0
2017-08-30T01:11:42.553Z,0
2017-08-30T01:12:42.228Z,0
2017-08-30T01:13:41.911Z,0
2017-08-30T01:14:42.217Z,0
2017-08-30T01:15:42.575Z,0
2017-08-30T01:16:42.204Z,0
2017-08-30T01:17:42.515Z,0
2017-08-30T01:18:42.504Z,0
2017-08-30T01:19:41.873Z,0
2017-08-30T01:20:42.163Z,0
2017-08-30T01:21:42.186Z,0
2017-08-30T01:22:42.149Z,0
2017-08-30T01:23:42.145Z,0
2017-08-30T01:24:42.457Z,0
2017-08-30T01:25:42.129Z,0
2017-08-30T01:26:42.121Z,0
2017-08-30T01:27:42.440Z,0
2017-08-30T01:28:42.424Z,0
2017-08-30T01:29:41.779Z,0
2017-08-30T01:30:42.407Z,0
2017-08-30T01:31:42.404Z,0
2017-08-30T01:32:42.108Z,0
2017-08-30T01:33:42.386Z,0
2017-08-30T01:34:41.742Z,0
2017-08-30T01:35:42.100Z,0
2017-08-30T01:36:41.720Z,0
2017-08-30T01:37:42.366Z,0
2017-08-30T01:38:42.028Z,0
2017-08-30T01:39:41.742Z,0
2017-08-30T01:40:41.715Z,0
2017-08-30T01:41:42.332Z,0
2017-08-30T01:42:42.330Z,0
2017-08-30T01:43:41.671Z,0
2017-08-30T01:44:42.046Z,0
2017-08-30T01:45:41.990Z,0
2017-08-30T01:46:42.297Z,0
2017-08-30T01:47:41.323Z,0
2017-08-30T01:48:41.630Z,0
2017-08-30T01:49:41.985Z,0
2017-08-30T01:50:41.624Z,0
2017-08-30T01:51:41.291Z,0
2017-08-30T01:52:41.603Z,0
2017-08-30T01:53:41.919Z,0
2017-08-30T01:54:41.586Z,0
2017-08-30T01:55:41.581Z,0
2017-08-30T01:56:41.891Z,0
2017-08-30T01:57:42.210Z,0
2017-08-30T01:58:41.242Z,0
2017-08-30T01:59:41.237Z,0
2017-08-30T02:00:41.549Z,0
2017-08-30T02:01:42.181Z,0
2017-08-30T02:02:41.854Z,0
2017-08-30T02:03:41.887Z,0
2017-08-30T02:04:41.515Z,0
2017-08-30T02:05:42.032Z,0
2017-08-30T02:06:41.499Z,0
2017-08-30T02:07:41.814Z,0
2017-08-30T02:08:41.810Z,0
2017-08-30T02:09:41.482Z,0
2017-08-30T02:10:41.827Z,0
2017-08-30T02:11:41.890Z,0
2017-08-30T02:12:41.132Z,0
2017-08-30T02:13:41.767Z,0
2017-08-30T02:14:41.756Z,0
2017-08-30T02:15:41.112Z,0
2017-08-30T02:16:41.739Z,0
2017-08-30T02:17:42.064Z,0
2017-08-30T02:18:41.086Z,0
2017-08-30T02:19:41.731Z,0
2017-08-30T02:20:42.048Z,0
2017-08-30T02:21:42.034Z,0
2017-08-30T02:22:41.700Z,0
2017-08-30T02:23:41.375Z,0
2017-08-30T02:24:41.682Z,0
2017-08-30T02:25:41.685Z,0
2017-08-30T02:26:41.349Z,0
2017-08-30T02:27:41.376Z,0
2017-08-30T02:28:41.975Z,0
2017-08-30T02:29:41.327Z,0
2017-08-30T02:30:41.677Z,0
2017-08-30T02:31:40.991Z,0
2017-08-30T02:32:41.305Z,0
2017-08-30T02:33:41.947Z,0
2017-08-30T02:34:41.608Z,0
2017-08-30T02:35:41.282Z,0
2017-08-30T02:36:41.275Z,0
2017-08-30T02:37:41.920Z,0
2017-08-30T02:38:41.581Z,0
2017-08-30T02:39:41.255Z,0
2017-08-30T02:40:41.603Z,0
2017-08-30T02:41:41.240Z,0
2017-08-30T02:42:41.563Z,0
2017-08-30T02:43:41.543Z,0
2017-08-30T02:44:40.907Z,0
2017-08-30T02:45:41.852Z,0
2017-08-30T02:46:41.213Z,0
2017-08-30T02:47:41.846Z,0
2017-08-30T02:48:41.194Z,0
2017-08-30T02:49:41.498Z,0
2017-08-30T02:50:40.848Z,0
2017-08-30T02:51:41.487Z,0
2017-08-30T02:52:40.871Z,0
2017-08-30T02:53:41.471Z,0
2017-08-30T02:54:40.823Z,0
2017-08-30T02:55:41.133Z,0
2017-08-30T02:56:41.449Z,0
2017-08-30T02:57:41.451Z,0
2017-08-30T02:58:41.764Z,0
2017-08-30T02:59:41.442Z,0
2017-08-30T03:00:41.412Z,0
2017-08-30T03:01:41.410Z,0
2017-08-30T03:02:41.127Z,0
2017-08-30T03:03:41.076Z,0
2017-08-30T03:04:41.065Z,0
2017-08-30T03:05:41.736Z,0
2017-08-30T03:06:41.050Z,0
2017-08-30T03:07:41.092Z,0
2017-08-30T03:08:41.032Z,0
2017-08-30T03:09:41.674Z,0
2017-08-30T03:10:41.663Z,0
2017-08-30T03:11:41.013Z,0
2017-08-30T03:12:41.013Z,0
2017-08-30T03:13:41.321Z,0
2017-08-30T03:14:41.307Z,0
2017-08-30T03:15:41.310Z,0
2017-08-30T03:16:40.652Z,0
2017-08-30T03:17:40.645Z,0
2017-08-30T03:18:40.641Z,0
2017-08-30T03:19:40.635Z,0
2017-08-30T03:20:41.316Z,0
2017-08-30T03:21:40.617Z,0
2017-08-30T03:22:41.260Z,0
2017-08-30T03:23:40.606Z,0
2017-08-30T03:24:41.242Z,0
2017-08-30T03:25:41.548Z,0
2017-08-30T03:26:40.901Z,0
2017-08-30T03:27:41.244Z,0
2017-08-30T03:28:41.533Z,0
2017-08-30T03:29:40.875Z,0
2017-08-30T03:30:41.204Z,0
2017-08-30T03:31:41.191Z,0
2017-08-30T03:32:40.910Z,0
2017-08-30T03:33:41.514Z,0
2017-08-30T03:34:41.186Z,0
2017-08-30T03:35:40.511Z,0
2017-08-30T03:36:40.825Z,0
2017-08-30T03:37:40.821Z,0
2017-08-30T03:38:40.808Z,0
2017-08-30T03:39:40.800Z,0
2017-08-30T03:40:40.787Z,0
2017-08-30T03:41:41.101Z,0
2017-08-30T03:42:41.098Z,0
2017-08-30T03:43:40.766Z,0
2017-08-30T03:44:41.075Z,0
2017-08-30T03:45:41.081Z,0
2017-08-30T03:46:40.746Z,0
2017-08-30T03:47:41.059Z,0
2017-08-30T03:48:41.050Z,0
2017-08-30T03:49:41.038Z,0
2017-08-30T03:50:41.356Z,0
2017-08-30T03:51:41.026Z,0
2017-08-30T03:52:40.376Z,0
2017-08-30T03:53:41.008Z,0
2017-08-30T03:54:40.722Z,0
2017-08-30T03:55:41.002Z,0
2017-08-30T03:56:40.340Z,0
2017-08-30T03:57:40.975Z,0
2017-08-30T03:58:40.963Z,0
2017-08-30T03:59:40.964Z,0
2017-08-30T04:00:41.276Z,0
2017-08-30T04:01:40.952Z,0
2017-08-30T04:02:40.934Z,0
2017-08-30T04:03:40.284Z,0
2017-08-30T04:04:40.928Z,0
2017-08-30T04:05:40.795Z,0
2017-08-30T04:06:40.583Z,4
2017-08-30T04:07:40.896Z,0
2017-08-30T04:08:40.891Z,0
2017-08-30T04:09:40.889Z,4
2017-08-30T04:10:40.555Z,4
2017-08-30T04:11:41.191Z,4
2017-08-30T04:12:40.857Z,4
2017-08-30T04:13:40.529Z,4
2017-08-30T04:14:41.158Z,4
2017-08-30T04:15:40.867Z,8
2017-08-30T04:16:40.820Z,8
2017-08-30T04:17:40.172Z,12
2017-08-30T04:18:40.808Z,8
2017-08-30T04:19:40.799Z,12
2017-08-30T04:20:40.809Z,16
2017-08-30T04:21:40.468Z,20
2017-08-30T04:22:40.777Z,24
2017-08-30T04:23:40.768Z,28
2017-08-30T04:24:40.440Z,28
2017-08-30T04:25:40.752Z,32
2017-08-30T04:26:40.097Z,40
2017-08-30T04:27:41.052Z,44
2017-08-30T04:28:40.399Z,52
2017-08-30T04:29:40.391Z,60
2017-08-30T04:30:40.387Z,64
2017-08-30T04:31:40.694Z,72
2017-08-30T04:32:40.686Z,84
2017-08-30T04:33:40.997Z,88
2017-08-30T04:34:40.346Z,96
2017-08-30T04:35:40.017Z,104
2017-08-30T04:36:40.337Z,112
2017-08-30T04:37:40.653Z,116
2017-08-30T04:38:40.642Z,124
2017-08-30T04:39:40.312Z,128
2017-08-30T04:40:40.943Z,140
2017-08-30T04:41:40.608Z,148
2017-08-30T04:42:40.933Z,160
2017-08-30T04:43:40.994Z,180
2017-08-30T04:44:40.265Z,196
2017-08-30T04:45:40.901Z,220
2017-08-30T04:46:40.887Z,244
2017-08-30T04:47:40.245Z,268
2017-08-30T04:48:40.231Z,296
2017-08-30T04:49:40.222Z,320
2017-08-30T04:50:40.208Z,344
2017-08-30T04:51:40.855Z,360
2017-08-30T04:52:40.515Z,380
2017-08-30T04:53:40.504Z,396
2017-08-30T04:54:40.828Z,416
2017-08-30T04:55:40.491Z,432
2017-08-30T04:56:40.165Z,456
2017-08-30T04:57:40.162Z,468
2017-08-30T04:58:40.467Z,488
2017-08-30T04:59:40.145Z,504
2017-08-30T05:00:40.770Z,516
2017-08-30T05:01:40.125Z,532
2017-08-30T05:02:40.430Z,548
2017-08-30T05:03:40.423Z,564
2017-08-30T05:04:40.097Z,580
2017-08-30T05:05:40.091Z,584
2017-08-30T05:06:40.407Z,596
2017-08-30T05:07:40.389Z,608
2017-08-30T05:08:40.103Z,620
2017-08-30T05:09:40.058Z,636
2017-08-30T05:10:40.368Z,648
2017-08-30T05:11:40.360Z,656
2017-08-30T05:12:40.403Z,660
2017-08-30T05:13:40.666Z,672
2017-08-30T05:14:40.017Z,684
2017-08-30T05:15:39.681Z,700
2017-08-30T05:16:39.987Z,724
2017-08-30T05:17:39.982Z,748
2017-08-30T05:18:39.654Z,772
2017-08-30T05:19:40.281Z,792
2017-08-30T05:20:40.280Z,812
2017-08-30T05:21:39.631Z,832
2017-08-30T05:22:39.613Z,848
2017-08-30T05:23:40.256Z,868
2017-08-30T05:24:39.920Z,884
2017-08-30T05:25:39.916Z,904
2017-08-30T05:26:39.903Z,924
2017-08-30T05:27:40.217Z,948
2017-08-30T05:28:40.213Z,968
2017-08-30T05:29:39.885Z,988
2017-08-30T05:30:39.868Z,1012
2017-08-30T05:31:40.182Z,1032
2017-08-30T05:32:40.180Z,1060
2017-08-30T05:33:39.849Z,1084
2017-08-30T05:34:40.152Z,1116
2017-08-30T05:35:40.146Z,1160
2017-08-30T05:36:39.824Z,1208
2017-08-30T05:37:39.812Z,1256
2017-08-30T05:38:39.484Z,1308
2017-08-30T05:39:39.792Z,1352
2017-08-30T05:40:40.116Z,1392
2017-08-30T05:41:40.424Z,1448
2017-08-30T05:42:39.451Z,1496
2017-08-30T05:43:40.086Z,1536
2017-08-30T05:44:40.073Z,1580
2017-08-30T05:45:39.747Z,1648
2017-08-30T05:46:39.761Z,1732
2017-08-30T05:47:39.403Z,1824
2017-08-30T05:48:39.714Z,1912
2017-08-30T05:49:39.391Z,2008
2017-08-30T05:50:39.704Z,2056
2017-08-30T05:51:40.340Z,2060
2017-08-30T05:52:40.004Z,2052
2017-08-30T05:53:39.678Z,2076
2017-08-30T05:54:40.001Z,2140
2017-08-30T05:55:39.988Z,2204
2017-08-30T05:56:39.661Z,2268
2017-08-30T05:57:39.328Z,2324
2017-08-30T05:58:39.958Z,2368
2017-08-30T05:59:39.948Z,2424
2017-08-30T06:00:39.617Z,2464
2017-08-30T06:01:39.939Z,2472
2017-08-30T06:02:40.239Z,2448
2017-08-30T06:03:39.588Z,2428
2017-08-30T06:04:39.588Z,2424
2017-08-30T06:05:39.781Z,2420
2017-08-30T06:06:39.570Z,2428
2017-08-30T06:07:39.566Z,2436
2017-08-30T06:08:39.552Z,2408
2017-08-30T06:09:39.550Z,2404
2017-08-30T06:10:39.865Z,2420
2017-08-30T06:11:39.561Z,2460
2017-08-30T06:12:39.522Z,2412
2017-08-30T06:13:39.518Z,2352
2017-08-30T06:14:39.185Z,2336
2017-08-30T06:15:40.134Z,2364
2017-08-30T06:16:39.810Z,2448
2017-08-30T06:17:39.479Z,2512
2017-08-30T06:18:39.154Z,2556
2017-08-30T06:19:39.792Z,2620
2017-08-30T06:20:39.458Z,2680
2017-08-30T06:21:39.787Z,2724
2017-08-30T06:22:39.440Z,2796
2017-08-30T06:23:39.437Z,2932
2017-08-30T06:24:39.756Z,3148
2017-08-30T06:25:40.062Z,3308
2017-08-30T06:26:39.421Z,3384
2017-08-30T06:27:39.411Z,3352
2017-08-30T06:28:39.399Z,3252
2017-08-30T06:29:39.400Z,3172
2017-08-30T06:30:39.065Z,3184
2017-08-30T06:31:40.031Z,3224
2017-08-30T06:32:39.372Z,3276
2017-08-30T06:33:39.715Z,3400
2017-08-30T06:34:39.354Z,3512
2017-08-30T06:35:39.683Z,3632
2017-08-30T06:36:39.673Z,3736
2017-08-30T06:37:39.985Z,3840
2017-08-30T06:38:39.333Z,3956
2017-08-30T06:39:39.639Z,4048
2017-08-30T06:40:39.314Z,4096
2017-08-30T06:41:39.304Z,4068
2017-08-30T06:42:39.617Z,4048
2017-08-30T06:43:39.290Z,3972
2017-08-30T06:44:39.655Z,3860
2017-08-30T06:45:39.916Z,3820
2017-08-30T06:46:39.264Z,3788
2017-08-30T06:47:39.265Z,3732
2017-08-30T06:48:39.574Z,3620
2017-08-30T06:49:39.321Z,3492
2017-08-30T06:50:39.562Z,3320
2017-08-30T06:51:39.572Z,3108
2017-08-30T06:52:39.545Z,3220
2017-08-30T06:53:39.217Z,3268
2017-08-30T06:54:38.892Z,3360
2017-08-30T06:55:39.527Z,3456
2017-08-30T06:56:39.565Z,3564
2017-08-30T06:57:38.867Z,3760
2017-08-30T06:58:39.505Z,3952
2017-08-30T06:59:39.177Z,4268
2017-08-30T07:00:39.177Z,4624
2017-08-30T07:01:39.165Z,5112
2017-08-30T07:02:39.476Z,5588
2017-08-30T07:03:39.148Z,5944
2017-08-30T07:04:39.463Z,6180
2017-08-30T07:05:39.454Z,6360
2017-08-30T07:06:38.802Z,6388
2017-08-30T07:07:38.799Z,6412
2017-08-30T07:08:39.113Z,6548
2017-08-30T07:09:39.478Z,6500
2017-08-30T07:10:39.100Z,6376
2017-08-30T07:11:39.137Z,6284
2017-08-30T07:12:39.089Z,6320
2017-08-30T07:13:39.726Z,6072
2017-08-30T07:14:39.406Z,5916
2017-08-30T07:15:39.075Z,5984
2017-08-30T07:16:39.380Z,6092
2017-08-30T07:17:39.062Z,6108
2017-08-30T07:18:39.694Z,6020
2017-08-30T07:19:39.040Z,5956
2017-08-30T07:20:39.693Z,5824
2017-08-30T07:21:39.032Z,5536
2017-08-30T07:22:39.346Z,5384
2017-08-30T07:23:39.018Z,5456
2017-08-30T07:24:39.008Z,5448
2017-08-30T07:25:39.330Z,5496
2017-08-30T07:26:39.330Z,5512
2017-08-30T07:27:39.314Z,5536
2017-08-30T07:28:39.004Z,5568
2017-08-30T07:29:39.018Z,5528
2017-08-30T07:30:39.316Z,5472
2017-08-30T07:31:39.614Z,5496
2017-08-30T07:32:39.286Z,5572
2017-08-30T07:33:39.278Z,5608
2017-08-30T07:34:38.948Z,5708
2017-08-30T07:35:39.321Z,5820
2017-08-30T07:36:38.961Z,5956
2017-08-30T07:37:39.258Z,5980
2017-08-30T07:38:39.244Z,5896
2017-08-30T07:39:39.249Z,5820
2017-08-30T07:40:38.921Z,5864
2017-08-30T07:41:39.550Z,5360
2017-08-30T07:42:39.230Z,4880
2017-08-30T07:43:39.547Z,4544
2017-08-30T07:44:39.534Z,4064
2017-08-30T07:45:39.531Z,3492
2017-08-30T07:46:39.212Z,3020
2017-08-30T07:47:39.202Z,2796
2017-08-30T07:48:39.192Z,2572
2017-08-30T07:49:39.188Z,2232
2017-08-30T07:50:38.911Z,1892
2017-08-30T07:51:39.175Z,1892
2017-08-30T07:52:38.849Z,2116
2017-08-30T07:53:39.160Z,2344
2017-08-30T07:54:38.880Z,2340
2017-08-30T07:55:39.147Z,2320
2017-08-30T07:56:39.150Z,2408
2017-08-30T07:57:39.458Z,2748
2017-08-30T07:58:39.132Z,2968
2017-08-30T07:59:38.809Z,3008
2017-08-30T08:00:38.848Z,2880
2017-08-30T08:01:39.128Z,2800
2017-08-30T08:02:38.813Z,2784
2017-08-30T08:03:39.125Z,3004
2017-08-30T08:04:38.776Z,3408
2017-08-30T08:05:39.622Z,4100
2017-08-30T08:06:38.445Z,4812
2017-08-30T08:07:38.768Z,5612
2017-08-30T08:08:39.399Z,6164
2017-08-30T08:09:39.065Z,6320
2017-08-30T08:10:39.059Z,6336
2017-08-30T08:11:39.065Z,6124
2017-08-30T08:12:38.730Z,5640
2017-08-30T08:13:38.725Z,5384
2017-08-30T08:14:38.411Z,5328
2017-08-30T08:15:39.382Z,5468
2017-08-30T08:16:38.712Z,5512
2017-08-30T08:17:38.703Z,5816
2017-08-30T08:18:38.687Z,6156
2017-08-30T08:19:39.006Z,6496
2017-08-30T08:20:39.006Z,7920
2017-08-30T08:21:38.996Z,8592
2017-08-30T08:22:38.347Z,8640
2017-08-30T08:23:38.979Z,9256
2017-08-30T08:24:38.977Z,10972
2017-08-30T08:25:39.025Z,8672
2017-08-30T08:26:38.968Z,9796
2017-08-30T08:27:38.315Z,10664
2017-08-30T08:28:38.627Z,9556
2017-08-30T08:29:38.953Z,10596
2017-08-30T08:30:38.963Z,9980
2017-08-30T08:31:38.937Z,10456
2017-08-30T08:32:38.307Z,10548
2017-08-30T08:33:38.930Z,9936
2017-08-30T08:34:38.922Z,10720
2017-08-30T08:35:38.914Z,10436
2017-08-30T08:36:38.590Z,10052
2017-08-30T08:37:39.233Z,9604
2017-08-30T08:38:38.614Z,9716
2017-08-30T08:39:38.893Z,9728
2017-08-30T08:40:38.882Z,9716
2017-08-30T08:41:38.883Z,9756
2017-08-30T08:42:38.877Z,9384
2017-08-30T08:43:38.550Z,8556
2017-08-30T08:44:38.866Z,7648
2017-08-30T08:45:38.541Z,7220
2017-08-30T08:46:38.215Z,6912
2017-08-30T08:47:38.537Z,6672
2017-08-30T08:48:38.523Z,6488
2017-08-30T08:49:38.520Z,6452
2017-08-30T08:50:39.183Z,6372
2017-08-30T08:51:38.828Z,6192
2017-08-30T08:52:39.144Z,6056
2017-08-30T08:53:38.817Z,6232
2017-08-30T08:54:38.809Z,6652
2017-08-30T08:55:38.488Z,7048
2017-08-30T08:56:38.807Z,7416
2017-08-30T08:57:38.807Z,7988
2017-08-30T08:58:38.799Z,8468
2017-08-30T08:59:38.797Z,8628
2017-08-30T09:00:38.785Z,9020
2017-08-30T09:01:39.104Z,9848
2017-08-30T09:02:38.778Z,9884
2017-08-30T09:03:38.464Z,9752
2017-08-30T09:04:38.442Z,9884
2017-08-30T09:05:38.447Z,10116
2017-08-30T09:06:38.484Z,10208
2017-08-30T09:07:38.749Z,10048
2017-08-30T09:08:39.065Z,9432
2017-08-30T09:09:38.762Z,9044
2017-08-30T09:10:39.058Z,8472
2017-08-30T09:11:38.731Z,7800
2017-08-30T09:12:38.729Z,7184
2017-08-30T09:13:38.435Z,7052
2017-08-30T09:14:38.404Z,7372
2017-08-30T09:15:38.712Z,7824
2017-08-30T09:16:38.383Z,8316
2017-08-30T09:17:38.710Z,8564
2017-08-30T09:18:38.700Z,8552
2017-08-30T09:19:38.696Z,8688
2017-08-30T09:20:38.685Z,8404
2017-08-30T09:21:38.045Z,8248
2017-08-30T09:22:38.678Z,7700
2017-08-30T09:23:38.999Z,7056
2017-08-30T09:24:38.667Z,6716
2017-08-30T09:25:38.666Z,6608
2017-08-30T09:26:38.336Z,6708
2017-08-30T09:27:38.655Z,6800
2017-08-30T09:28:38.008Z,6740
2017-08-30T09:29:38.653Z,6760
2017-08-30T09:30:38.634Z,6612
2017-08-30T09:31:38.632Z,6388
2017-08-30T09:32:38.306Z,6172
2017-08-30T09:33:38.632Z,6124
2017-08-30T09:34:38.943Z,5708
2017-08-30T09:35:38.616Z,5344
2017-08-30T09:36:38.613Z,5108
2017-08-30T09:37:37.971Z,4848
2017-08-30T09:38:38.285Z,4648
2017-08-30T09:39:38.274Z,4668
2017-08-30T09:40:38.918Z,4288
2017-08-30T09:41:37.947Z,3852
2017-08-30T09:42:38.260Z,3488
2017-08-30T09:43:38.258Z,3300
2017-08-30T09:44:38.581Z,3100
2017-08-30T09:45:38.894Z,3048
2017-08-30T09:46:38.569Z,2984
2017-08-30T09:47:38.562Z,2844
2017-08-30T09:48:38.285Z,2832
2017-08-30T09:49:37.908Z,2972
2017-08-30T09:50:38.552Z,3172
2017-08-30T09:51:38.862Z,3220
2017-08-30T09:52:38.870Z,2900
2017-08-30T09:53:38.212Z,2728
2017-08-30T09:54:38.207Z,2828
2017-08-30T09:55:38.202Z,2928
2017-08-30T09:56:38.195Z,2880
2017-08-30T09:57:38.190Z,2568
2017-08-30T09:58:37.859Z,2104
2017-08-30T09:59:38.191Z,1952
2017-08-30T10:00:38.494Z,1956
2017-08-30T10:01:38.168Z,2100
2017-08-30T10:02:38.164Z,2228
2017-08-30T10:03:38.529Z,2348
2017-08-30T10:04:38.150Z,2448
2017-08-30T10:05:38.873Z,2808
2017-08-30T10:06:38.461Z,3408
2017-08-30T10:07:37.808Z,4116
2017-08-30T10:08:37.812Z,5128
2017-08-30T10:09:38.443Z,5764
2017-08-30T10:10:38.444Z,5728
2017-08-30T10:11:38.116Z,5596
2017-08-30T10:12:38.103Z,5464
2017-08-30T10:13:37.784Z,5356
2017-08-30T10:14:37.775Z,5212
2017-08-30T10:15:38.411Z,4592
2017-08-30T10:16:38.090Z,3976
2017-08-30T10:17:38.729Z,3712
2017-08-30T10:18:38.074Z,3616
2017-08-30T10:19:38.710Z,3588
2017-08-30T10:20:38.068Z,3352
2017-08-30T10:21:38.383Z,3272
2017-08-30T10:22:38.759Z,3668
2017-08-30T10:23:38.386Z,3648
2017-08-30T10:24:38.045Z,3244
2017-08-30T10:25:38.032Z,3512
2017-08-30T10:26:38.667Z,4000
2017-08-30T10:27:38.022Z,4320
2017-08-30T10:28:38.337Z,4512
2017-08-30T10:29:38.008Z,4668
2017-08-30T10:30:38.340Z,5072
2017-08-30T10:31:38.048Z,5056
2017-08-30T10:32:37.997Z,4880
2017-08-30T10:33:37.667Z,4564
2017-08-30T10:34:38.309Z,4380
2017-08-30T10:35:37.983Z,4416
2017-08-30T10:36:37.979Z,4424
2017-08-30T10:37:38.022Z,4620
2017-08-30T10:38:37.971Z,4904
2017-08-30T10:39:37.966Z,4888
2017-08-30T10:40:38.336Z,4816
2017-08-30T10:41:38.323Z,4644
2017-08-30T10:42:38.263Z,4220
2017-08-30T10:43:38.591Z,3724
2017-08-30T10:44:37.610Z,3636
2017-08-30T10:45:38.245Z,3876
2017-08-30T10:46:38.239Z,3888
2017-08-30T10:47:38.289Z,3872
2017-08-30T10:48:38.229Z,3824
2017-08-30T10:49:37.905Z,3928
2017-08-30T10:50:38.221Z,4436
2017-08-30T10:51:37.575Z,5172
2017-08-30T10:52:38.218Z,6368
2017-08-30T10:53:38.206Z,7356
2017-08-30T10:54:38.577Z,7644
2017-08-30T10:55:37.880Z,7912
2017-08-30T10:56:37.866Z,7836
2017-08-30T10:57:37.915Z,7332
2017-08-30T10:58:38.178Z,6780
2017-08-30T10:59:37.852Z,6696
2017-08-30T11:00:38.176Z,6508
2017-08-30T11:01:38.163Z,5860
2017-08-30T11:02:37.845Z,5436
2017-08-30T11:03:38.152Z,5460
2017-08-30T11:04:38.140Z,5968
2017-08-30T11:05:37.504Z,6704
2017-08-30T11:06:38.135Z,7496
2017-08-30T11:07:38.128Z,8268
2017-08-30T11:08:37.833Z,8332
2017-08-30T11:09:38.443Z,8352
2017-08-30T11:10:38.122Z,8472
2017-08-30T11:11:38.106Z,8600
2017-08-30T11:12:38.105Z,9244
2017-08-30T11:13:38.101Z,9112
2017-08-30T11:14:37.783Z,9120
2017-08-30T11:15:38.413Z,8832
2017-08-30T11:16:37.441Z,8852
2017-08-30T11:17:38.128Z,9332
2017-08-30T11:18:38.073Z,10312
2017-08-30T11:19:37.752Z,11460
2017-08-30T11:20:38.060Z,12508
2017-08-30T11:21:37.739Z,12964
2017-08-30T11:22:38.055Z,12708
2017-08-30T11:23:37.404Z,12996
2017-08-30T11:24:38.046Z,13796
2017-08-30T11:25:38.071Z,14440
2017-08-30T11:26:38.356Z,14800
2017-08-30T11:27:37.760Z,21952
2017-08-30T11:28:38.025Z,22496
2017-08-30T11:29:38.026Z,27232
2017-08-30T11:30:38.016Z,32256
2017-08-30T11:31:37.696Z,20480
2017-08-30T11:32:37.689Z,25824
2017-08-30T11:33:38.001Z,18816
2017-08-30T11:34:38.002Z,21792
2017-08-30T11:35:37.999Z,20928
2017-08-30T11:36:37.669Z,17952
2017-08-30T11:37:37.353Z,14804
2017-08-30T11:38:37.986Z,13768
2017-08-30T11:39:37.662Z,13360
2017-08-30T11:40:37.982Z,13384
2017-08-30T11:41:37.658Z,14184
2017-08-30T11:42:37.658Z,16512
2017-08-30T11:43:37.980Z,18112
2017-08-30T11:44:38.294Z,20896
2017-08-30T11:45:37.972Z,23712
2017-08-30T11:46:37.966Z,35296
2017-08-30T11:47:37.966Z,28064
2017-08-30T11:48:37.961Z,32544
2017-08-30T11:49:37.636Z,42208
2017-08-30T11:50:37.953Z,42656
2017-08-30T11:51:38.270Z,53568
2017-08-30T11:52:37.625Z,45088
2017-08-30T11:53:37.622Z,50016
2017-08-30T11:54:37.938Z,47488
2017-08-30T11:55:37.939Z,49152
2017-08-30T11:56:37.615Z,47776
2017-08-30T11:57:37.617Z,50048
2017-08-30T11:58:37.935Z,46848
2017-08-30T11:59:37.986Z,47360
2017-08-30T12:00:37.608Z,49600
2017-08-30T12:01:37.929Z,53600
2017-08-30T12:02:37.300Z,53792
2017-08-30T12:03:38.250Z,48384
2017-08-30T12:04:37.939Z,44384
2017-08-30T12:05:37.619Z,38496
2017-08-30T12:06:38.138Z,35072
2017-08-30T12:07:37.936Z,36608
2017-08-30T12:08:37.932Z,28000
2017-08-30T12:09:37.618Z,27648
2017-08-30T12:10:37.618Z,36416
2017-08-30T12:11:37.949Z,37824
2017-08-30T12:12:37.947Z,36832
2017-08-30T12:13:37.966Z,30784
2017-08-30T12:14:37.649Z,31840
2017-08-30T12:15:37.627Z,28672
2017-08-30T12:16:37.624Z,22528
2017-08-30T12:17:37.960Z,22208
2017-08-30T12:18:37.631Z,20704
2017-08-30T12:19:37.964Z,25568
2017-08-30T12:20:37.956Z,24960
2017-08-30T12:21:37.965Z,27968
2017-08-30T12:22:37.964Z,35424
2017-08-30T12:23:37.961Z,28064
2017-08-30T12:24:38.328Z,36384
2017-08-30T12:25:37.326Z,37280
2017-08-30T12:26:37.324Z,39296
2017-08-30T12:27:37.701Z,40608
2017-08-30T12:28:37.327Z,36992
2017-08-30T12:29:37.977Z,33664
2017-08-30T12:30:37.326Z,22080
2017-08-30T12:31:37.980Z,18592
2017-08-30T12:32:38.390Z,19488
2017-08-30T12:33:38.313Z,20544
2017-08-30T12:34:38.037Z,20160
2017-08-30T12:35:37.386Z,24448
2017-08-30T12:36:37.652Z,23616
2017-08-30T12:37:37.336Z,22080
2017-08-30T12:38:37.336Z,21664
2017-08-30T12:39:37.981Z,19232
2017-08-30T12:40:37.657Z,21632
2017-08-30T12:41:37.658Z,23168
2017-08-30T12:42:37.660Z,23168
2017-08-30T12:43:37.343Z,21504
2017-08-30T12:44:37.989Z,16352
2017-08-30T12:45:37.667Z,14304
2017-08-30T12:46:37.662Z,24640
2017-08-30T12:47:38.307Z,14580
2017-08-30T12:48:38.304Z,11952
2017-08-30T12:49:38.302Z,11600
2017-08-30T12:50:37.978Z,17248
2017-08-30T12:51:37.992Z,14264
2017-08-30T12:52:37.987Z,17600
2017-08-30T12:53:37.988Z,23712
2017-08-30T12:54:37.987Z,24960
2017-08-30T12:55:37.664Z,24416
2017-08-30T12:56:37.674Z,23808
2017-08-30T12:57:37.985Z,18784
2017-08-30T12:58:37.344Z,18272
2017-08-30T12:59:38.300Z,26336
2017-08-30T13:00:37.996Z,23136
2017-08-30T13:01:37.981Z,23040
2017-08-30T13:02:38.000Z,25696
2017-08-30T13:03:37.665Z,27904
2017-08-30T13:04:38.309Z,26368
2017-08-30T13:05:37.663Z,36544
2017-08-30T13:06:37.663Z,37504
2017-08-30T13:07:37.985Z,38048
2017-08-30T13:08:37.662Z,38400
2017-08-30T13:09:37.983Z,38304
2017-08-30T13:10:37.981Z,40128
2017-08-30T13:11:37.339Z,40384
2017-08-30T13:12:38.302Z,37440
2017-08-30T13:13:37.659Z,29024
2017-08-30T13:14:37.659Z,29120
2017-08-30T13:15:37.658Z,27264
2017-08-30T13:16:37.671Z,25792
2017-08-30T13:17:38.307Z,23616
2017-08-30T13:18:37.661Z,21504
2017-08-30T13:19:37.661Z,19552
2017-08-30T13:20:37.662Z,13828
2017-08-30T13:21:38.310Z,15004
2017-08-30T13:22:37.341Z,18720
2017-08-30T13:23:37.986Z,17600
2017-08-30T13:24:37.981Z,16416
2017-08-30T13:25:37.665Z,18400
2017-08-30T13:26:38.308Z,22400
2017-08-30T13:27:37.669Z,25088
2017-08-30T13:28:37.986Z,23840
2017-08-30T13:29:37.990Z,22528
2017-08-30T13:30:37.672Z,15092
2017-08-30T13:31:37.667Z,12420
2017-08-30T13:32:38.311Z,10368
2017-08-30T13:33:37.986Z,9768
2017-08-30T13:34:37.346Z,9500
2017-08-30T13:35:37.665Z,9056
2017-08-30T13:36:37.662Z,8552
2017-08-30T13:37:37.982Z,8196
2017-08-30T13:38:37.660Z,7756
2017-08-30T13:39:37.343Z,7444
2017-08-30T13:40:37.986Z,7196
2017-08-30T13:41:37.332Z,6956
2017-08-30T13:42:38.318Z,6928